Time;durP1;ratioP1;P1;durP2;ratioP2;P2;SDS_P1;SDS_P2;PMS_P1;PMS_P2;Temp;Humidity;BMP_temperature;BMP_pressure;BME280_temperature;BME280_humidity;BME280_pressure;Samples;Min_cycle;Max_cycle;Signal;HPM_P1;HPM_P2
2022/08/30 00:03:06;;;;;;;4.38;2.90;;;15.60;99.90;;;;;;7394814;19;20031;-79
2022/08/30 00:05:33;;;;;;;6.28;3.50;;;15.60;99.90;;;;;;7397284;19;20038;-81
2022/08/30 00:07:59;;;;;;;4.07;3.67;;;15.50;99.90;;;;;;7391987;19;20025;-80
2022/08/30 00:10:27;;;;;;;7.82;4.00;;;15.40;99.90;;;;;;7397948;19;20022;-79
2022/08/30 00:12:53;;;;;;;9.98;3.95;;;15.40;99.90;;;;;;7398543;19;20399;-80
2022/08/30 00:15:20;;;;;;;6.55;3.67;;;15.30;99.90;;;;;;7388074;19;20028;-79
2022/08/30 00:17:46;;;;;;;7.95;4.32;;;15.30;99.90;;;;;;7394002;19;20015;-79
2022/08/30 00:20:25;;;;;;;6.68;3.70;;;15.20;99.90;;;;;;7395815;19;20087;-79
2022/08/30 00:22:51;;;;;;;7.82;3.70;;;15.20;99.90;;;;;;7395440;19;20031;-79
2022/08/30 00:25:18;;;;;;;7.10;4.20;;;15.10;99.90;;;;;;7394501;19;20015;-79
2022/08/30 00:27:44;;;;;;;7.50;4.65;;;15.10;99.90;;;;;;7397989;19;20022;-79
2022/08/30 00:30:12;;;;;;;7.20;4.53;;;15.10;99.90;;;;;;7393412;19;20446;-79
2022/08/30 00:32:39;;;;;;;7.97;4.80;;;15.00;99.90;;;;;;7398643;19;20019;-79
2022/08/30 00:35:06;;;;;;;9.40;4.90;;;15.00;99.90;;;;;;7393437;19;20018;-79
2022/08/30 00:37:32;;;;;;;6.25;4.63;;;15.00;99.90;;;;;;7395570;19;20018;-79
2022/08/30 00:39:58;;;;;;;9.43;5.40;;;14.90;99.90;;;;;;7394617;19;20022;-79
2022/08/30 00:42:24;;;;;;;8.80;5.03;;;14.90;99.90;;;;;;7393553;19;20023;-80
2022/08/30 00:44:51;;;;;;;10.68;5.53;;;14.90;99.90;;;;;;7394639;19;20022;-79
2022/08/30 00:47:17;;;;;;;8.88;5.60;;;14.90;99.90;;;;;;7392681;19;20023;-79
2022/08/30 00:49:48;;;;;;;8.30;5.82;;;14.80;99.90;;;;;;7389509;19;20440;-79
2022/08/30 00:52:16;;;;;;;6.53;5.63;;;14.80;99.90;;;;;;7392943;19;20022;-79
2022/08/30 00:54:45;;;;;;;10.05;6.03;;;14.80;99.90;;;;;;7391226;19;20081;-79
2022/08/30 00:57:13;;;;;;;7.65;5.65;;;14.70;99.90;;;;;;7395893;19;20362;-80
2022/08/30 00:59:44;;;;;;;8.50;5.65;;;14.70;99.90;;;;;;7392401;19;20022;-79
2022/08/30 01:02:11;;;;;;;8.32;5.93;;;14.70;99.90;;;;;;7393794;19;20039;-79
2022/08/30 01:04:41;;;;;;;7.20;5.80;;;14.70;99.90;;;;;;7395509;19;20014;-79
2022/08/30 01:07:07;;;;;;;6.93;6.22;;;14.70;99.90;;;;;;7396075;19;20038;-80
2022/08/30 01:09:35;;;;;;;7.65;6.10;;;14.70;99.90;;;;;;7393785;19;20039;-79
2022/08/30 01:12:02;;;;;;;7.53;5.45;;;14.70;99.90;;;;;;7395088;19;20048;-79
2022/08/30 01:14:28;;;;;;;9.05;5.65;;;14.70;99.90;;;;;;7392000;19;20011;-80
2022/08/30 01:16:56;;;;;;;10.13;5.88;;;14.60;99.90;;;;;;7394054;19;20022;-79
2022/08/30 01:19:25;;;;;;;8.13;5.90;;;14.60;99.90;;;;;;7392121;19;20018;-79
2022/08/30 01:21:58;;;;;;;8.82;6.30;;;14.50;99.90;;;;;;7392497;19;20019;-79
2022/08/30 01:24:24;;;;;;;8.25;5.22;;;14.50;99.90;;;;;;7395044;19;20046;-79
2022/08/30 01:26:50;;;;;;;9.30;5.60;;;14.50;99.90;;;;;;7393125;19;20018;-79
2022/08/30 01:29:20;;;;;;;9.73;6.30;;;14.50;99.90;;;;;;7391803;19;20503;-79
2022/08/30 01:31:46;;;;;;;7.40;5.80;;;14.40;99.90;;;;;;7392137;19;20368;-79
2022/08/30 01:34:11;;;;;;;7.38;5.30;;;14.40;99.90;;;;;;7390722;19;20694;-79
2022/08/30 01:36:41;;;;;;;8.15;5.90;;;14.40;99.90;;;;;;7390163;19;20114;-79
2022/08/30 01:39:10;;;;;;;8.90;5.78;;;14.40;99.90;;;;;;7391837;19;20026;-79
2022/08/30 01:41:36;;;;;;;8.02;4.93;;;14.40;99.90;;;;;;7391191;19;20015;-79
2022/08/30 01:44:09;;;;;;;6.72;5.60;;;14.40;99.90;;;;;;7394742;19;20011;-79
2022/08/30 01:46:46;;;;;;;8.07;5.47;;;14.40;99.90;;;;;;7395736;19;20106;-79
2022/08/30 01:49:14;;;;;;;7.65;5.55;;;14.30;99.90;;;;;;7399350;19;20010;-79
2022/08/30 01:51:40;;;;;;;7.05;5.55;;;14.30;99.90;;;;;;7399722;19;20018;-79
2022/08/30 01:54:06;;;;;;;8.32;5.00;;;14.30;99.90;;;;;;7399718;19;20025;-79
2022/08/30 01:56:34;;;;;;;9.60;5.25;;;14.30;99.90;;;;;;7401511;19;20010;-79
2022/08/30 01:59:00;;;;;;;7.68;4.90;;;14.30;99.90;;;;;;7400927;19;20019;-79
2022/08/30 02:01:28;;;;;;;6.57;5.20;;;14.20;99.90;;;;;;7399908;19;20369;-80
2022/08/30 02:03:55;;;;;;;7.50;4.47;;;14.20;99.90;;;;;;7399085;19;20018;-79
2022/08/30 02:06:22;;;;;;;6.57;5.00;;;14.20;99.90;;;;;;7399755;19;20023;-79
2022/08/30 02:08:48;;;;;;;5.78;4.85;;;14.20;99.90;;;;;;7401040;19;20052;-79
2022/08/30 02:11:14;;;;;;;8.35;4.97;;;14.20;99.90;;;;;;7400588;19;20014;-79
2022/08/30 02:13:42;;;;;;;7.05;4.82;;;14.20;99.90;;;;;;7399870;19;20656;-79
2022/08/30 02:16:10;;;;;;;8.63;5.45;;;14.20;99.90;;;;;;7399333;19;20523;-79
2022/08/30 02:18:38;;;;;;;7.53;5.55;;;14.20;99.90;;;;;;7396574;19;20018;-79
2022/08/30 02:21:05;;;;;;;7.15;5.55;;;14.20;99.90;;;;;;7399492;19;20010;-79
2022/08/30 02:23:31;;;;;;;8.75;5.70;;;14.20;99.90;;;;;;7399621;19;20022;-79
2022/08/30 02:25:58;;;;;;;7.63;5.50;;;14.10;99.90;;;;;;7398388;19;20030;-79
2022/08/30 02:28:24;;;;;;;5.47;4.75;;;14.10;99.90;;;;;;7397236;19;20045;-79
2022/08/30 02:30:51;;;;;;;9.27;5.55;;;14.10;99.90;;;;;;7397739;19;20018;-79
2022/08/30 02:33:17;;;;;;;8.30;5.82;;;14.10;99.90;;;;;;7400373;19;20082;-79
2022/08/30 02:35:43;;;;;;;7.40;5.75;;;14.10;99.90;;;;;;7394608;19;20484;-80
2022/08/30 02:38:09;;;;;;;6.50;5.50;;;14.00;99.90;;;;;;7398903;19;20089;-79
2022/08/30 02:40:35;;;;;;;7.88;6.03;;;14.10;99.90;;;;;;7397919;19;20007;-80
2022/08/30 02:43:01;;;;;;;8.70;6.07;;;14.10;99.90;;;;;;7399375;19;20469;-79
2022/08/30 02:45:27;;;;;;;11.45;6.45;;;14.10;99.90;;;;;;7396819;19;20015;-79
2022/08/30 02:47:55;;;;;;;9.75;6.20;;;14.10;99.90;;;;;;7399241;19;20038;-79
2022/08/30 02:50:22;;;;;;;6.95;5.57;;;14.10;99.90;;;;;;7394708;19;20018;-79
2022/08/30 02:52:48;;;;;;;10.23;5.90;;;14.10;99.90;;;;;;7400029;19;20014;-79
2022/08/30 02:55:15;;;;;;;7.60;6.13;;;14.10;99.90;;;;;;7397977;19;20022;-79
2022/08/30 02:57:42;;;;;;;8.20;6.10;;;14.10;99.90;;;;;;7396054;19;20019;-79
2022/08/30 03:00:09;;;;;;;8.02;5.85;;;14.10;99.90;;;;;;7394641;19;20096;-79
2022/08/30 03:02:35;;;;;;;10.30;5.78;;;14.00;99.90;;;;;;7399218;19;20024;-79
2022/08/30 03:05:03;;;;;;;6.30;5.70;;;14.00;99.90;;;;;;7396422;19;20014;-79
2022/08/30 03:07:29;;;;;;;10.32;6.70;;;14.00;99.90;;;;;;7399764;19;20018;-79
2022/08/30 03:09:54;;;;;;;9.63;6.80;;;14.00;99.90;;;;;;7390757;19;20019;-79
2022/08/30 03:12:20;;;;;;;7.18;6.47;;;14.00;99.90;;;;;;7392573;19;20010;-79
2022/08/30 03:14:47;;;;;;;7.72;6.32;;;13.90;99.90;;;;;;7398104;19;20356;-79
2022/08/30 03:17:13;;;;;;;10.10;7.20;;;14.00;99.90;;;;;;7398330;19;20020;-79
2022/08/30 03:19:38;;;;;;;8.82;6.28;;;14.00;99.90;;;;;;7395851;19;20134;-79
2022/08/30 03:22:05;;;;;;;7.47;5.40;;;14.00;99.90;;;;;;7396163;19;20015;-79
2022/08/30 03:24:32;;;;;;;8.60;6.07;;;14.00;99.90;;;;;;7398913;19;20480;-79
2022/08/30 03:26:59;;;;;;;7.55;5.65;;;14.00;99.90;;;;;;7399280;19;20010;-79
2022/08/30 03:29:25;;;;;;;6.43;5.75;;;14.00;99.90;;;;;;7397750;19;20022;-79
2022/08/30 03:31:51;;;;;;;6.82;6.03;;;14.00;99.90;;;;;;7397202;19;20052;-79
2022/08/30 03:34:17;;;;;;;7.43;5.68;;;13.90;99.90;;;;;;7397658;19;20082;-79
2022/08/30 03:36:43;;;;;;;7.70;6.28;;;13.90;99.90;;;;;;7399316;19;20086;-79
2022/08/30 03:39:09;;;;;;;7.15;6.20;;;13.90;99.90;;;;;;7397247;19;20026;-79
2022/08/30 03:41:36;;;;;;;10.18;6.20;;;13.80;99.90;;;;;;7398408;19;20022;-79
2022/08/30 03:44:02;;;;;;;7.75;6.47;;;13.90;99.90;;;;;;7399080;19;20373;-79
2022/08/30 03:46:28;;;;;;;8.98;5.88;;;13.90;99.90;;;;;;7398496;19;20018;-79
2022/08/30 03:48:54;;;;;;;6.40;5.70;;;13.80;99.90;;;;;;7396157;19;20504;-79
2022/08/30 03:51:24;;;;;;;10.23;5.88;;;13.80;99.90;;;;;;7396572;19;20014;-79
2022/08/30 03:53:50;;;;;;;8.38;6.13;;;13.80;99.90;;;;;;7397151;19;20017;-79
2022/08/30 03:56:16;;;;;;;8.75;6.30;;;13.80;99.90;;;;;;7394835;19;20364;-79
2022/08/30 03:58:43;;;;;;;6.40;5.57;;;13.80;99.90;;;;;;7394979;19;20408;-79
2022/08/30 04:01:09;;;;;;;8.90;6.18;;;13.80;99.90;;;;;;7396773;19;20018;-79
2022/08/30 04:03:36;;;;;;;7.47;5.45;;;13.80;99.90;;;;;;7396515;19;20018;-79
2022/08/30 04:06:02;;;;;;;6.88;5.70;;;13.80;99.90;;;;;;7396544;19;20014;-79
2022/08/30 04:08:28;;;;;;;9.88;5.70;;;13.70;99.90;;;;;;7398250;19;20021;-79
2022/08/30 04:10:55;;;;;;;7.07;5.78;;;13.70;99.90;;;;;;7395060;19;20025;-79
2022/08/30 04:13:22;;;;;;;7.07;5.60;;;13.60;99.90;;;;;;7396338;19;20018;-80
2022/08/30 04:15:48;;;;;;;7.55;6.10;;;13.50;99.90;;;;;;7394839;19;20082;-79
2022/08/30 04:18:14;;;;;;;9.95;5.85;;;13.50;99.90;;;;;;7395560;19;20015;-79
2022/08/30 04:20:40;;;;;;;7.78;5.78;;;13.50;99.90;;;;;;7393733;19;20511;-79
2022/08/30 04:23:06;;;;;;;8.75;5.65;;;13.50;99.90;;;;;;7398475;19;20038;-79
2022/08/30 04:25:33;;;;;;;7.28;5.15;;;13.50;99.90;;;;;;7393346;19;20015;-79
2022/08/30 04:28:00;;;;;;;8.20;5.40;;;13.50;99.90;;;;;;7395871;19;20046;-79
2022/08/30 04:30:26;;;;;;;6.47;5.82;;;13.50;99.90;;;;;;7392608;19;20038;-80
2022/08/30 04:32:52;;;;;;;9.20;6.05;;;13.40;99.90;;;;;;7393494;19;20018;-79
2022/08/30 04:35:18;;;;;;;7.65;5.53;;;13.40;99.90;;;;;;7389340;19;20025;-79
2022/08/30 04:37:44;;;;;;;6.70;5.95;;;13.40;99.90;;;;;;7395068;19;20034;-80
2022/08/30 04:40:10;;;;;;;7.97;6.07;;;13.40;99.90;;;;;;7395822;19;20491;-79
2022/08/30 04:42:37;;;;;;;7.38;6.53;;;13.30;99.90;;;;;;7395059;19;20077;-80
2022/08/30 04:45:07;;;;;;;9.38;6.82;;;13.30;99.90;;;;;;7392660;19;20022;-79
2022/08/30 04:47:33;;;;;;;10.13;7.07;;;13.30;99.90;;;;;;7394335;19;20018;-79
2022/08/30 04:49:59;;;;;;;7.60;6.32;;;13.20;99.90;;;;;;7395826;19;20346;-79
2022/08/30 04:52:27;;;;;;;8.80;6.80;;;13.30;99.90;;;;;;7392801;19;20010;-80
2022/08/30 04:54:54;;;;;;;8.18;6.25;;;13.30;99.90;;;;;;7393662;19;20010;-79
2022/08/30 04:57:21;;;;;;;9.55;7.03;;;13.30;99.90;;;;;;7397497;19;20042;-79
2022/08/30 04:59:47;;;;;;;9.48;7.53;;;13.30;99.90;;;;;;7395129;19;20010;-80
2022/08/30 05:02:13;;;;;;;7.78;6.85;;;13.20;99.90;;;;;;7396678;19;20383;-79
2022/08/30 05:05:38;;;;;;;10.27;6.90;;;13.20;99.90;;;;;;7391808;19;20566;-79
2022/08/30 05:07:27;;;;;;;7.28;6.45;;;13.20;99.90;;;;;;7392083;19;20038;-80
2022/08/30 05:09:53;;;;;;;8.77;7.63;;;13.20;99.90;;;;;;7395506;19;20356;-79
2022/08/30 05:12:19;;;;;;;13.20;7.68;;;13.20;99.90;;;;;;7392135;19;20018;-79
2022/08/30 05:14:45;;;;;;;9.88;7.43;;;13.20;99.90;;;;;;7391831;19;20006;-79
2022/08/30 05:17:11;;;;;;;9.07;7.47;;;13.20;99.90;;;;;;7391675;19;20035;-80
2022/08/30 05:19:36;;;;;;;9.30;7.70;;;13.20;99.90;;;;;;7393197;19;20021;-79
2022/08/30 05:22:03;;;;;;;9.13;7.35;;;13.20;99.90;;;;;;7390065;19;20010;-79
2022/08/30 05:24:30;;;;;;;11.40;8.07;;;13.30;99.90;;;;;;7396362;19;20452;-79
2022/08/30 05:26:57;;;;;;;9.05;8.15;;;13.30;99.90;;;;;;7397205;19;20015;-79
2022/08/30 05:29:23;;;;;;;9.52;8.30;;;13.30;99.90;;;;;;7392432;19;20115;-79
2022/08/30 05:31:49;;;;;;;8.80;7.80;;;13.30;99.90;;;;;;7395047;19;20109;-80
2022/08/30 05:34:15;;;;;;;7.40;6.65;;;13.30;99.90;;;;;;7391822;19;20031;-79
2022/08/30 05:36:41;;;;;;;9.80;7.03;;;13.20;99.90;;;;;;7394772;19;20022;-79
2022/08/30 05:39:09;;;;;;;9.27;7.80;;;13.20;99.90;;;;;;7391047;19;20021;-79
2022/08/30 05:41:36;;;;;;;10.50;8.43;;;13.10;99.90;;;;;;7394040;19;20034;-79
2022/08/30 05:44:05;;;;;;;10.77;8.90;;;13.10;99.90;;;;;;7391443;19;20352;-78
2022/08/30 05:46:31;;;;;;;13.70;11.13;;;13.10;99.90;;;;;;7393079;19;20023;-79
2022/08/30 05:49:00;;;;;;;11.40;9.95;;;13.20;99.90;;;;;;7394723;19;20475;-78
2022/08/30 05:51:28;;;;;;;11.32;10.10;;;13.50;99.90;;;;;;7391957;19;20097;-83
2022/08/30 05:53:56;;;;;;;11.70;9.90;;;13.70;99.90;;;;;;7392363;19;20030;-83
2022/08/30 05:56:29;;;;;;;13.00;10.90;;;13.70;99.90;;;;;;7389926;19;20023;-78
2022/08/30 05:58:55;;;;;;;42.88;13.23;;;13.80;99.90;;;;;;7392664;19;20015;-79
2022/08/30 06:01:36;;;;;;;12.70;10.60;;;13.90;99.90;;;;;;7390669;19;20048;-92
2022/08/30 06:04:04;;;;;;;11.48;9.65;;;13.90;99.90;;;;;;7389870;19;20037;-76
2022/08/30 06:06:32;;;;;;;14.57;10.15;;;14.00;99.90;;;;;;7388549;19;20010;-77
2022/08/30 06:08:58;;;;;;;11.65;9.75;;;14.10;99.90;;;;;;7393159;19;20377;-76
2022/08/30 06:11:25;;;;;;;11.05;8.52;;;14.00;99.90;;;;;;7390374;19;20043;-76
2022/08/30 06:13:52;;;;;;;10.23;8.38;;;14.10;99.90;;;;;;7390070;19;20034;-76
2022/08/30 06:16:21;;;;;;;10.57;7.50;;;14.20;99.90;;;;;;7391556;19;20026;-76
2022/08/30 06:18:47;;;;;;;11.63;8.40;;;14.30;99.90;;;;;;7391421;19;20015;-76
2022/08/30 06:21:23;;;;;;;7.63;6.15;;;14.40;99.90;;;;;;7387546;19;20353;-77
2022/08/30 06:23:49;;;;;;;8.07;6.05;;;14.50;99.90;;;;;;7389496;19;20014;-77
2022/08/30 06:26:16;;;;;;;7.97;5.95;;;14.60;99.90;;;;;;7391272;19;20021;-77
2022/08/30 06:28:43;;;;;;;7.63;6.05;;;14.70;99.90;;;;;;7393570;19;20015;-77
2022/08/30 06:31:11;;;;;;;5.72;5.10;;;14.80;99.90;;;;;;7391626;19;20014;-77
2022/08/30 06:33:38;;;;;;;10.73;6.70;;;15.00;99.90;;;;;;7393348;19;20014;-76
2022/08/30 06:36:06;;;;;;;7.07;5.20;;;15.00;99.90;;;;;;7398773;19;20395;-77
2022/08/30 06:38:32;;;;;;;10.60;5.20;;;15.10;99.90;;;;;;7398294;19;20014;-77
2022/08/30 06:40:58;;;;;;;6.57;4.30;;;15.20;99.90;;;;;;7399958;19;21141;-77
2022/08/30 06:43:24;;;;;;;7.65;4.22;;;15.30;99.90;;;;;;7396163;19;20011;-77
2022/08/30 06:45:51;;;;;;;6.30;2.63;;;15.40;99.90;;;;;;7397614;19;20014;-77
2022/08/30 06:48:17;;;;;;;4.40;2.67;;;15.50;99.90;;;;;;7396551;19;20514;-77
2022/08/30 06:50:43;;;;;;;4.95;2.35;;;15.60;99.90;;;;;;7396341;19;20366;-77
2022/08/30 06:53:09;;;;;;;4.78;2.50;;;15.70;99.90;;;;;;7396344;19;20015;-77
2022/08/30 06:55:36;;;;;;;3.88;1.83;;;15.70;99.90;;;;;;7395730;19;20017;-77
2022/08/30 06:58:03;;;;;;;3.17;1.90;;;15.80;99.90;;;;;;7396301;19;20111;-77
2022/08/30 07:00:29;;;;;;;3.40;1.70;;;15.90;99.90;;;;;;7398992;19;20018;-77
2022/08/30 07:02:56;;;;;;;3.38;1.90;;;16.00;99.90;;;;;;7399655;19;20018;-77
2022/08/30 07:05:22;;;;;;;4.53;1.55;;;16.20;99.90;;;;;;7396363;19;20014;-77
2022/08/30 07:07:52;;;;;;;5.18;1.48;;;16.60;99.90;;;;;;7396406;19;20019;-77
2022/08/30 07:10:18;;;;;;;2.05;1.15;;;17.40;99.90;;;;;;7395336;19;20014;-77
2022/08/30 07:12:44;;;;;;;4.95;1.33;;;17.80;99.90;;;;;;7395999;19;20368;-77
2022/08/30 07:15:10;;;;;;;2.30;1.00;;;17.80;99.90;;;;;;7396108;19;20018;-77
2022/08/30 07:20:20;;;;;;;2.30;1.10;;;18.80;99.90;;;;;;7394926;19;20060;-77
2022/08/30 07:22:47;;;;;;;3.97;1.10;;;18.70;99.90;;;;;;7394877;19;20019;-78
2022/08/30 07:25:14;;;;;;;3.47;1.10;;;18.50;99.90;;;;;;7395740;19;20022;-77
2022/08/30 07:27:40;;;;;;;3.50;1.38;;;18.50;99.90;;;;;;7397387;19;20014;-77
2022/08/30 07:30:08;;;;;;;2.78;1.10;;;18.70;99.90;;;;;;7392778;19;20015;-77
2022/08/30 07:32:34;;;;;;;3.17;1.40;;;19.50;99.90;;;;;;7398894;19;20341;-77
2022/08/30 07:35:00;;;;;;;4.55;1.33;;;20.30;99.90;;;;;;7396713;19;20019;-78
2022/08/30 07:37:25;;;;;;;3.03;1.20;;;21.10;99.90;;;;;;7393688;19;20479;-77
2022/08/30 07:39:51;;;;;;;2.00;1.02;;;21.80;99.90;;;;;;7392932;19;20044;-78
2022/08/30 07:42:17;;;;;;;3.63;1.10;;;22.20;99.90;;;;;;7397117;19;20015;-77
2022/08/30 07:44:43;;;;;;;2.40;1.20;;;22.40;99.90;;;;;;7395244;19;20090;-77
2022/08/30 07:47:10;;;;;;;4.68;1.30;;;22.60;99.90;;;;;;7392980;19;20558;-77
2022/08/30 07:49:36;;;;;;;3.00;1.30;;;22.90;99.90;;;;;;7396886;19;20077;-77
2022/08/30 07:52:03;;;;;;;2.55;0.90;;;23.30;99.90;;;;;;7397524;19;20018;-78
2022/08/30 07:54:29;;;;;;;2.60;1.20;;;23.30;99.90;;;;;;7394666;19;20010;-78
2022/08/30 07:56:55;;;;;;;2.85;0.98;;;23.20;99.90;;;;;;7395154;19;20451;-78
2022/08/30 07:59:24;;;;;;;2.15;0.95;;;23.00;99.90;;;;;;7398706;19;20018;-77
2022/08/30 08:01:50;;;;;;;2.42;0.90;;;23.20;99.90;;;;;;7394150;19;20007;-77
2022/08/30 08:04:15;;;;;;;4.20;1.00;;;23.40;99.90;;;;;;7395899;19;20077;-77
2022/08/30 08:06:44;;;;;;;3.75;0.90;;;23.50;99.90;;;;;;7393730;19;20357;-77
2022/08/30 08:09:10;;;;;;;1.88;0.90;;;23.70;99.90;;;;;;7395210;19;20018;-77
2022/08/30 08:11:36;;;;;;;2.30;0.90;;;23.50;99.90;;;;;;7394244;19;20042;-78
2022/08/30 08:14:03;;;;;;;4.53;1.00;;;23.50;99.90;;;;;;7395110;19;20379;-77
2022/08/30 08:16:33;;;;;;;2.45;0.88;;;23.40;99.90;;;;;;7394507;19;20010;-78
2022/08/30 08:18:59;;;;;;;3.08;1.02;;;23.40;99.90;;;;;;7394833;19;20017;-77
2022/08/30 08:21:26;;;;;;;2.42;1.00;;;23.40;99.70;;;;;;7396544;19;20014;-77
2022/08/30 08:23:53;;;;;;;3.60;1.00;;;23.20;99.70;;;;;;7396740;19;20042;-77
2022/08/30 08:26:19;;;;;;;1.83;1.00;;;22.70;99.90;;;;;;7394317;19;20014;-78
2022/08/30 08:28:46;;;;;;;3.28;1.00;;;21.70;99.90;;;;;;7391997;19;20029;-77
2022/08/30 08:31:23;;;;;;;2.03;1.17;;;21.10;99.90;;;;;;7394709;19;20364;-78
2022/08/30 08:33:50;;;;;;;2.85;0.88;;;20.90;99.90;;;;;;7392216;19;20655;-78
2022/08/30 08:36:16;;;;;;;2.38;1.00;;;20.60;99.90;;;;;;7391742;19;20356;-78
2022/08/30 08:38:43;;;;;;;1.75;0.80;;;20.60;99.90;;;;;;7393807;19;20022;-78
2022/08/30 08:41:31;;;;;;;3.83;1.00;;;20.50;99.90;;;;;;7393468;19;20048;-79
2022/08/30 08:43:57;;;;;;;3.45;1.00;;;20.00;99.90;;;;;;7393028;19;20113;-78
2022/08/30 08:46:39;;;;;;;1.90;1.00;;;19.80;99.90;;;;;;7396526;19;20018;-78
2022/08/30 08:49:07;;;;;;;;;;;19.70;99.90;;;;;;7394275;19;20082;-78
2022/08/30 08:54:52;;;;;;;1.88;0.75;;;19.90;99.90;;;;;;7397965;19;20496;-78
2022/08/30 08:57:18;;;;;;;1.05;0.90;;;20.00;99.90;;;;;;7393928;19;20014;-77
2022/08/30 08:59:44;;;;;;;3.45;0.70;;;20.20;99.90;;;;;;7387446;19;20034;-78
2022/08/30 09:02:42;;;;;;;4.00;0.95;;;20.20;99.90;;;;;;7391210;19;20018;-78
2022/08/30 09:05:10;;;;;;;2.45;0.80;;;20.10;99.90;;;;;;7396836;19;20018;-78
2022/08/30 09:07:40;;;;;;;3.75;1.30;;;20.10;99.90;;;;;;7392279;19;20038;-78
2022/08/30 09:10:06;;;;;;;2.03;1.05;;;20.30;99.90;;;;;;7391136;19;20041;-78
2022/08/30 09:12:32;;;;;;;2.35;0.70;;;20.60;99.90;;;;;;7391946;19;20094;-76
2022/08/30 09:15:08;;;;;;;2.35;0.80;;;20.80;99.90;;;;;;7392522;19;20026;-77
2022/08/30 09:17:50;;;;;;;2.65;0.90;;;20.90;99.90;;;;;;7394711;19;20356;-78
2022/08/30 09:20:32;;;;;;;2.72;1.10;;;20.90;99.90;;;;;;7393411;19;20095;-77
2022/08/30 09:23:09;;;;;;;1.35;0.88;;;21.00;99.90;;;;;;7393847;19;20029;-78
2022/08/30 09:25:35;;;;;;;1.77;0.77;;;21.20;99.90;;;;;;7393418;19;20025;-78
2022/08/30 09:28:14;;;;;;;2.53;0.90;;;21.40;99.90;;;;;;7394985;19;20681;-78
2022/08/30 09:31:06;;;;;;;2.67;1.10;;;21.60;99.90;;;;;;7391100;19;20010;-78
2022/08/30 09:33:33;;;;;;;3.42;0.93;;;21.80;99.90;;;;;;7394491;19;20018;-78
2022/08/30 09:36:12;;;;;;;3.15;0.93;;;21.80;99.90;;;;;;7393113;19;20014;-78
2022/08/30 09:38:38;;;;;;;1.55;0.80;;;21.80;99.90;;;;;;7388308;19;20026;-78
2022/08/30 09:41:41;;;;;;;3.35;1.00;;;21.70;99.70;;;;;;7391227;19;20105;-78
2022/08/30 09:44:13;;;;;;;2.65;1.02;;;21.40;99.90;;;;;;7394354;19;20479;-79
2022/08/30 09:46:46;;;;;;;2.90;1.27;;;21.40;99.90;;;;;;7392871;19;20014;-78
2022/08/30 09:49:38;;;;;;;4.40;1.13;;;21.50;99.90;;;;;;7391689;19;20081;-78
2022/08/30 09:52:22;;;;;;;2.90;0.80;;;21.60;99.90;;;;;;7390729;19;20048;-81
2022/08/30 09:55:03;;;;;;;1.65;1.00;;;21.50;99.90;;;;;;7396188;19;20014;-80
2022/08/30 09:57:35;;;;;;;2.58;0.90;;;21.40;99.90;;;;;;7393671;19;20014;-79
2022/08/30 10:00:17;;;;;;;1.38;0.90;;;21.60;99.90;;;;;;7392060;19;20541;-80
2022/08/30 10:02:49;;;;;;;3.33;1.23;;;21.60;99.90;;;;;;7388325;19;20029;-80
2022/08/30 10:05:24;;;;;;;4.38;1.13;;;21.30;99.90;;;;;;7389863;19;20022;-81
2022/08/30 10:08:05;;;;;;;3.42;1.10;;;21.10;99.90;;;;;;7391589;19;20006;-80
2022/08/30 10:10:46;;;;;;;1.33;0.70;;;20.90;99.90;;;;;;7397133;19;20018;-80
2022/08/30 10:13:30;;;;;;;2.40;0.80;;;20.80;99.90;;;;;;7401296;19;20371;-80
2022/08/30 10:16:33;;;;;;;2.20;0.88;;;20.70;99.90;;;;;;7395946;19;20920;-80
2022/08/30 10:19:28;;;;;;;1.42;0.80;;;20.80;99.90;;;;;;7397913;19;20022;-80
2022/08/30 10:22:03;;;;;;;2.53;0.85;;;21.10;99.90;;;;;;7394070;19;20011;-80
2022/08/30 10:24:36;;;;;;;1.95;0.90;;;21.50;99.90;;;;;;7398588;19;20019;-80
2022/08/30 10:27:25;;;;;;;2.63;0.90;;;21.40;99.90;;;;;;7400559;19;20486;-80
2022/08/30 10:30:07;;;;;;;2.05;0.90;;;21.40;99.90;;;;;;7396547;19;20010;-80
2022/08/30 10:32:51;;;;;;;2.90;1.00;;;21.10;99.90;;;;;;7399148;19;20015;-80
2022/08/30 10:35:22;;;;;;;2.42;0.93;;;20.90;99.90;;;;;;7396204;19;20011;-80
2022/08/30 10:37:53;;;;;;;3.58;0.85;;;21.00;99.90;;;;;;7398097;19;20018;-80
2022/08/30 10:43:34;;;;;;;1.90;0.82;;;21.40;99.90;;;;;;7399200;19;20043;-80
2022/08/30 10:46:04;;;;;;;3.55;0.90;;;21.90;99.90;;;;;;7395965;19;20018;-79
2022/08/30 10:48:36;;;;;;;1.70;0.73;;;22.10;99.90;;;;;;7397796;19;20023;-80
2022/08/30 10:51:14;;;;;;;3.45;1.08;;;21.80;99.90;;;;;;7393460;19;20007;-80
2022/08/30 10:53:52;;;;;;;2.95;0.95;;;21.50;99.90;;;;;;7396514;19;20014;-79
2022/08/30 10:56:22;;;;;;;2.25;0.98;;;21.70;99.90;;;;;;7396604;19;20024;-80
2022/08/30 10:58:48;;;;;;;1.20;0.80;;;22.20;99.90;;;;;;7395755;19;20369;-80
2022/08/30 11:01:58;;;;;;;2.00;1.10;;;22.40;99.90;;;;;;7399931;19;20010;-79
2022/08/30 11:04:27;;;;;;;1.30;0.77;;;22.60;99.90;;;;;;7396445;19;20369;-82
2022/08/30 11:07:20;;;;;;;2.90;0.70;;;22.70;99.80;;;;;;7396962;19;20017;-81
2022/08/30 11:10:02;;;;;;;2.50;1.08;;;22.90;99.70;;;;;;7393098;19;20372;-80
2022/08/30 11:12:36;;;;;;;2.35;0.93;;;23.00;99.90;;;;;;7399660;19;20018;-79
2022/08/30 11:15:20;;;;;;;2.95;0.90;;;23.20;99.90;;;;;;7399398;19;20035;-77
2022/08/30 11:17:58;;;;;;;2.25;0.88;;;23.20;99.90;;;;;;7396092;19;20022;-77
2022/08/30 11:20:51;;;;;;;1.40;0.80;;;23.30;99.90;;;;;;7392314;19;20023;-77
2022/08/30 11:23:32;;;;;;;2.55;0.70;;;23.40;99.50;;;;;;7398064;19;20019;-77
2022/08/30 11:26:04;;;;;;;2.10;0.98;;;23.20;99.50;;;;;;7389987;19;20042;-78
2022/08/30 11:28:36;;;;;;;2.65;0.80;;;23.00;99.50;;;;;;7395202;19;20025;-79
2022/08/30 11:31:07;;;;;;;2.25;0.80;;;23.00;99.40;;;;;;7397310;19;20031;-79
2022/08/30 11:33:47;;;;;;;2.20;0.70;;;23.20;99.40;;;;;;7398668;19;20015;-79
2022/08/30 11:36:32;;;;;;;2.50;0.90;;;23.30;99.10;;;;;;7394352;19;20046;-79
2022/08/30 11:39:04;;;;;;;1.90;0.80;;;23.50;99.50;;;;;;7394144;19;20086;-78
2022/08/30 11:41:36;;;;;;;2.30;0.77;;;23.70;98.80;;;;;;7395780;19;20387;-78
2022/08/30 11:44:21;;;;;;;2.10;1.13;;;23.80;98.70;;;;;;7397722;19;20038;-79
2022/08/30 11:46:49;;;;;;;2.03;0.93;;;23.90;98.60;;;;;;7393527;19;20016;-79
2022/08/30 11:49:18;;;;;;;1.83;0.68;;;24.00;98.50;;;;;;7398263;19;20074;-78
2022/08/30 11:52:03;;;;;;;1.33;0.60;;;24.20;98.60;;;;;;7395904;19;20014;-79
2022/08/30 11:54:53;;;;;;;1.33;0.50;;;24.30;98.10;;;;;;7391817;19;20102;-79
2022/08/30 11:57:41;;;;;;;2.75;0.73;;;24.40;97.90;;;;;;7393028;19;20367;-79
2022/08/30 12:00:32;;;;;;;2.03;0.77;;;24.00;98.00;;;;;;7396958;19;20478;-79
2022/08/30 12:03:04;;;;;;;2.08;0.70;;;23.80;98.50;;;;;;7392646;19;20025;-79
2022/08/30 12:05:41;;;;;;;2.53;0.80;;;23.70;98.00;;;;;;7390820;19;20015;-78
2022/08/30 12:08:19;;;;;;;2.58;0.93;;;23.90;98.20;;;;;;7395499;19;20015;-78
2022/08/30 12:11:03;;;;;;;2.22;0.77;;;24.00;98.50;;;;;;7393636;19;20436;-79
2022/08/30 12:13:43;;;;;;;2.67;0.77;;;24.20;98.00;;;;;;7395425;19;20034;-79
2022/08/30 12:16:13;;;;;;;2.55;0.77;;;24.20;98.10;;;;;;7396011;19;20010;-79
2022/08/30 12:18:42;;;;;;;4.53;0.82;;;24.00;98.10;;;;;;7393128;19;20007;-78
2022/08/30 12:21:34;;;;;;;1.20;0.77;;;23.80;98.50;;;;;;7393043;19;20022;-78
2022/08/30 12:24:24;;;;;;;3.47;0.80;;;23.50;98.90;;;;;;7397926;19;20018;-78
2022/08/30 12:26:53;;;;;;;1.77;0.80;;;23.20;99.40;;;;;;7397074;19;20018;-78
2022/08/30 12:29:25;;;;;;;1.88;0.90;;;23.10;99.80;;;;;;7394530;19;20388;-78
2022/08/30 12:31:55;;;;;;;2.28;0.50;;;23.30;99.50;;;;;;7393252;19;20014;-79
2022/08/30 12:34:43;;;;;;;2.25;0.80;;;23.50;98.70;;;;;;7395628;19;20010;-78
2022/08/30 12:37:22;;;;;;;1.45;0.70;;;23.30;99.20;;;;;;7393186;19;20025;-78
2022/08/30 12:39:58;;;;;;;2.47;0.90;;;23.00;99.20;;;;;;7395809;19;20022;-79
2022/08/30 12:42:30;;;;;;;2.25;0.77;;;22.80;99.50;;;;;;7393457;19;20006;-79
2022/08/30 12:45:00;;;;;;;2.55;0.70;;;22.70;99.70;;;;;;7393298;19;20017;-78
2022/08/30 12:47:41;;;;;;;3.05;0.63;;;22.70;99.90;;;;;;7394160;19;20022;-79
2022/08/30 12:50:09;;;;;;;1.63;0.75;;;22.70;99.90;;;;;;7393157;19;20043;-79
2022/08/30 12:52:45;;;;;;;2.58;0.70;;;22.80;99.90;;;;;;7394388;19;20504;-79
2022/08/30 12:55:19;;;;;;;2.63;0.70;;;23.00;99.90;;;;;;7392070;19;20052;-78
2022/08/30 12:58:00;;;;;;;1.95;0.70;;;22.80;99.90;;;;;;7393664;19;20047;-79
2022/08/30 13:00:38;;;;;;;1.17;0.60;;;22.70;99.90;;;;;;7396801;19;20029;-79
2022/08/30 13:03:22;;;;;;;3.13;0.60;;;22.80;99.90;;;;;;7393616;19;20022;-79
2022/08/30 13:05:48;;;;;;;1.75;0.70;;;23.10;99.60;;;;;;7396656;19;20488;-79
2022/08/30 13:08:20;;;;;;;3.08;0.80;;;23.40;99.60;;;;;;7393578;19;20017;-78
2022/08/30 13:10:56;;;;;;;1.40;0.80;;;23.60;99.30;;;;;;7391832;19;20511;-79
2022/08/30 13:13:29;;;;;;;0.85;0.63;;;23.60;99.20;;;;;;7392192;19;20042;-79